Time;durP1;ratioP1;P1;durP2;ratioP2;P2;SDS_P1;SDS_P2;PMS_P1;PMS_P2;Temp;Humidity;BMP_temperature;BMP_pressure;BME280_temperature;BME280_humidity;BME280_pressure;Samples;Min_cycle;Max_cycle;Signal;HPM_P1;HPM_P2
2021/03/09 00:01:24;;;;;;;23.52;16.77;;;;;;;0.35;72.68;95382.28;5046803;28;20116;-60
2021/03/09 00:03:50;;;;;;;27.67;16.52;;;;;;;0.82;72.84;95450.94;5050209;28;20070;-62
2021/03/09 00:06:15;;;;;;;24.20;16.83;;;;;;;0.75;73.33;95445.84;5048271;28;20691;-61
2021/03/09 00:08:40;;;;;;;26.73;16.58;;;;;;;0.56;73.04;95414.84;5047920;28;20451;-62
2021/03/09 00:11:05;;;;;;;23.25;16.08;;;;;;;0.56;72.90;95407.00;5048255;28;20044;-62
2021/03/09 00:13:31;;;;;;;24.52;17.40;;;;;;;0.41;72.64;95395.25;5051501;28;20231;-60
2021/03/09 00:15:56;;;;;;;23.67;16.13;;;;;;;0.63;72.72;95436.47;5053934;28;20470;-61
2021/03/09 00:18:21;;;;;;;28.02;16.85;;;;;;;0.50;73.00;95421.81;5051569;28;20052;-62
2021/03/09 00:20:47;;;;;;;25.08;17.50;;;;;;;0.50;73.11;95427.03;5051808;28;20524;-61
2021/03/09 00:23:12;;;;;;;25.88;16.92;;;;;;;0.52;73.27;95425.78;5051576;28;20045;-61
2021/03/09 00:25:37;;;;;;;29.70;18.58;;;;;;;0.42;73.37;95416.97;5051753;28;20060;-61
2021/03/09 00:28:03;;;;;;;32.38;19.40;;;;;;;0.40;73.19;95409.31;5053400;28;20106;-61
2021/03/09 00:30:28;;;;;;;28.45;17.88;;;;;;;0.31;72.86;95394.22;5051523;28;20174;-61
2021/03/09 00:32:53;;;;;;;25.73;17.08;;;;;;;0.42;73.23;95424.81;5051212;28;20059;-61
2021/03/09 00:35:19;;;;;;;26.40;17.00;;;;;;;0.36;73.44;95416.06;5051678;28;20052;-61
2021/03/09 00:37:44;;;;;;;28.83;18.48;;;;;;;0.44;73.48;95427.97;5049924;28;20052;-61
2021/03/09 00:40:10;;;;;;;29.65;18.23;;;;;;;0.42;73.67;95435.28;5051798;28;20035;-60
2021/03/09 00:42:35;;;;;;;32.03;18.13;;;;;;;0.33;73.88;95418.34;5051021;28;20391;-61
2021/03/09 00:45:00;;;;;;;31.35;18.13;;;;;;;0.37;73.83;95424.72;5053588;23;20582;-81
2021/03/09 00:47:26;;;;;;;33.72;18.58;;;;;;;0.26;73.94;95410.66;5033811;28;20125;-82
2021/03/09 00:49:51;;;;;;;29.85;18.85;;;;;;;0.24;73.88;95410.84;5033936;28;20038;-82
2021/03/09 00:52:16;;;;;;;33.20;19.25;;;;;;;0.23;74.31;95405.88;5033498;28;20119;-78
2021/03/09 00:54:41;;;;;;;33.88;20.05;;;;;;;0.31;74.18;95417.78;5034570;28;20029;-80
2021/03/09 00:57:07;;;;;;;31.85;18.45;;;;;;;0.32;74.13;95425.41;5032790;28;20041;-81
2021/03/09 00:59:32;;;;;;;30.40;19.20;;;;;;;0.24;74.11;95408.25;5033481;28;20557;-80
2021/03/09 01:01:58;;;;;;;31.27;18.33;;;;;;;0.21;74.17;95402.69;5032276;28;20080;-80
2021/03/09 01:04:23;;;;;;;32.63;18.90;;;;;;;0.10;73.99;95391.22;5032524;28;20037;-81
2021/03/09 01:06:48;;;;;;;28.98;17.55;;;;;;;-0.20;73.92;95344.34;5035669;28;20080;-82
2021/03/09 01:09:14;;;;;;;29.67;18.77;;;;;;;0.12;74.28;95389.19;5032637;28;20043;-80
2021/03/09 01:11:39;;;;;;;25.75;16.45;;;;;;;0.15;74.22;95400.97;5032094;28;20046;-80
2021/03/09 01:14:04;;;;;;;26.95;17.27;;;;;;;0.13;74.23;95400.44;5033412;28;20052;-81
2021/03/09 01:16:30;;;;;;;33.72;19.05;;;;;;;0.05;73.87;95382.47;5033383;28;20035;-81
2021/03/09 01:18:55;;;;;;;31.88;19.35;;;;;;;0.09;74.49;95387.00;5034898;28;20039;-81
2021/03/09 01:21:20;;;;;;;31.52;17.80;;;;;;;0.04;74.52;95386.13;5033028;28;20065;-81
2021/03/09 01:23:45;;;;;;;28.67;18.70;;;;;;;-0.08;75.23;95386.16;5032519;28;20125;-81
2021/03/09 01:26:11;;;;;;;27.85;18.35;;;;;;;0.05;75.21;95387.72;5033259;28;20560;-80
2021/03/09 01:28:36;;;;;;;37.63;19.98;;;;;;;0.00;75.08;95380.59;5032990;28;20041;-80
2021/03/09 01:31:02;;;;;;;40.55;20.25;;;;;;;0.02;75.37;95388.19;5034263;28;20029;-80
2021/03/09 01:33:27;;;;;;;35.15;19.48;;;;;;;-0.10;76.04;95362.88;5032042;28;20064;-81
2021/03/09 01:35:52;;;;;;;30.38;18.52;;;;;;;-0.12;76.46;95369.34;5032989;28;20092;-81
2021/03/09 01:38:17;;;;;;;31.92;19.30;;;;;;;-0.04;76.61;95375.00;5032529;28;20043;-81
2021/03/09 01:40:43;;;;;;;30.40;19.67;;;;;;;-0.10;76.32;95352.41;5032977;28;20037;-83
2021/03/09 01:43:08;;;;;;;28.50;17.55;;;;;;;0.05;75.74;95358.94;5034551;28;20064;-81
2021/03/09 01:45:34;;;;;;;32.85;18.83;;;;;;;-0.12;75.93;95341.38;5032878;28;20041;-79
2021/03/09 01:48:04;;;;;;;32.40;18.80;;;;;;;-0.02;75.73;95359.88;5031378;28;20743;-82
2021/03/09 01:50:32;;;;;;;27.13;17.63;;;;;;;-0.12;76.00;95356.25;5048074;28;20045;-80
2021/03/09 01:52:57;;;;;;;36.55;20.00;;;;;;;-0.04;75.90;95355.91;5032637;28;20483;-79
2021/03/09 01:55:23;;;;;;;33.13;18.17;;;;;;;-0.10;75.74;95349.78;5032602;28;20039;-81
2021/03/09 01:57:49;;;;;;;29.02;17.92;;;;;;;-0.18;75.17;95341.50;5033544;28;20471;-77
2021/03/09 02:00:15;;;;;;;31.55;18.60;;;;;;;-0.37;76.91;95343.47;5030672;28;20038;-80
2021/03/09 02:02:41;;;;;;;28.40;16.75;;;;;;;-0.48;77.43;95341.66;5030999;28;20048;-79
2021/03/09 02:05:08;;;;;;;22.60;15.93;;;;;;;-0.60;78.24;95339.88;5032212;28;20033;-80
2021/03/09 02:07:35;;;;;;;24.48;16.35;;;;;;;-0.43;77.39;95333.94;5030734;28;20167;-79
2021/03/09 02:10:01;;;;;;;29.02;17.75;;;;;;;-0.35;77.00;95326.53;5033968;28;20040;-79
2021/03/09 02:12:27;;;;;;;33.60;17.70;;;;;;;-0.27;76.00;95341.84;5031832;28;20499;-80
2021/03/09 02:15:10;;;;;;;26.77;17.67;;;;;;;-0.36;75.88;95330.19;5031611;28;20038;-79
2021/03/09 02:17:58;;;;;;;31.30;18.70;;;;;;;-0.35;75.32;95333.59;5030688;28;20041;-79
2021/03/09 02:21:01;;;;;;;30.00;17.85;;;;;;;-0.40;75.26;95326.44;5031771;28;20041;-80
2021/03/09 02:23:57;;;;;;;26.15;16.75;;;;;;;-0.45;76.11;95330.78;5030623;28;20120;-81
2021/03/09 02:26:35;;;;;;;27.88;17.85;;;;;;;-0.45;75.73;95328.94;5032138;28;20037;-81
2021/03/09 02:29:20;;;;;;;26.33;16.60;;;;;;;-0.45;75.32;95320.31;5031564;28;20033;-79
2021/03/09 02:31:50;;;;;;;23.42;16.40;;;;;;;-0.46;75.64;95313.47;5031313;28;20046;-79
2021/03/09 02:34:24;;;;;;;31.15;18.42;;;;;;;-0.49;75.53;95321.81;5033669;28;20026;-81
2021/03/09 02:36:50;;;;;;;34.83;19.50;;;;;;;-0.54;76.44;95319.88;5046573;28;20038;-78
2021/03/09 02:39:15;;;;;;;30.05;17.58;;;;;;;-0.50;76.86;95318.41;5031888;28;20041;-80
2021/03/09 02:41:46;;;;;;;35.35;19.85;;;;;;;-0.58;77.04;95318.72;5031182;28;20395;-82
2021/03/09 02:44:17;;;;;;;39.08;18.52;;;;;;;-0.47;76.62;95319.75;5031646;28;20060;-81
2021/03/09 02:46:44;;;;;;;34.00;19.70;;;;;;;-0.56;76.34;95312.28;5031344;28;20546;-82
2021/03/09 02:49:12;;;;;;;37.78;21.25;;;;;;;-0.61;75.91;95298.31;5049082;28;20078;-78
2021/03/09 02:51:40;;;;;;;35.65;19.88;;;;;;;-0.60;76.06;95299.91;5031410;28;20034;-80
2021/03/09 02:54:08;;;;;;;26.48;16.92;;;;;;;-0.52;75.37;95316.00;5030644;28;20033;-79
2021/03/09 02:56:36;;;;;;;30.35;17.23;;;;;;;-0.64;75.75;95310.00;5031300;28;20412;-79
2021/03/09 02:59:02;;;;;;;29.92;16.77;;;;;;;-0.68;75.96;95314.09;5031015;28;20692;-80
2021/03/09 03:01:28;;;;;;;31.90;18.13;;;;;;;-0.68;76.21;95308.06;5046538;28;20030;-80
2021/03/09 03:03:54;;;;;;;30.02;17.67;;;;;;;-0.71;75.71;95305.94;5032013;28;20108;-78
2021/03/09 03:06:20;;;;;;;28.70;17.70;;;;;;;-0.74;75.63;95295.94;5031253;28;20396;-78
2021/03/09 03:08:47;;;;;;;28.52;17.45;;;;;;;-0.82;75.36;95289.22;5030958;28;20124;-79
2021/03/09 03:11:14;;;;;;;37.90;19.50;;;;;;;-1.10;75.47;95251.56;5030695;28;20120;-79
2021/03/09 03:13:41;;;;;;;34.50;18.30;;;;;;;-0.79;75.17;95314.91;5030228;28;20037;-80
2021/03/09 03:16:10;;;;;;;31.52;17.77;;;;;;;-0.82;75.52;95310.94;5032657;28;20033;-79
2021/03/09 03:18:40;;;;;;;30.17;17.70;;;;;;;-0.95;75.92;95315.59;5030585;28;20042;-79
2021/03/09 03:21:08;;;;;;;30.13;16.77;;;;;;;-0.98;76.19;95306.38;5030645;28;20041;-79
2021/03/09 03:23:34;;;;;;;27.27;16.17;;;;;;;-0.87;75.64;95312.63;5031093;28;20051;-79
2021/03/09 03:26:04;;;;;;;35.92;18.70;;;;;;;-0.90;75.68;95310.47;5030985;28;20049;-79
2021/03/09 03:28:30;;;;;;;33.45;18.85;;;;;;;-0.88;75.77;95316.25;5030778;28;20026;-79
2021/03/09 03:30:55;;;;;;;29.33;17.27;;;;;;;-0.96;75.75;95308.78;5032605;28;20021;-79
2021/03/09 03:33:21;;;;;;;37.30;18.42;;;;;;;-0.97;75.36;95310.59;5030817;28;20048;-79
2021/03/09 03:35:46;;;;;;;38.30;18.70;;;;;;;-1.06;75.47;95302.31;5030729;28;20400;-78
2021/03/09 03:38:15;;;;;;;33.15;17.58;;;;;;;-1.13;75.15;95304.22;5030349;28;20087;-79
2021/03/09 03:40:42;;;;;;;31.23;17.85;;;;;;;-1.19;75.92;95292.06;5030565;28;20042;-79
2021/03/09 03:43:07;;;;;;;29.42;17.58;;;;;;;-1.17;75.69;95297.09;5032507;28;20025;-79
2021/03/09 03:45:33;;;;;;;27.75;16.88;;;;;;;-1.09;75.73;95312.41;5030525;28;20099;-79
2021/03/09 03:47:59;;;;;;;30.83;17.42;;;;;;;-1.14;75.43;95305.25;5033166;28;20045;-79
2021/03/09 03:50:26;;;;;;;30.42;17.33;;;;;;;-1.18;75.42;95304.09;5034571;28;20057;-78
2021/03/09 03:53:01;;;;;;;35.80;17.48;;;;;;;-1.24;76.09;95307.63;5034593;28;20037;-79
2021/03/09 03:56:16;;;;;;;30.33;17.20;;;;;;;-1.17;75.90;95308.31;5034762;28;20383;-79
2021/03/09 03:58:54;;;;;;;31.55;16.48;;;;;;;-1.16;76.38;95304.69;5024865;28;20049;-79
2021/03/09 04:01:23;;;;;;;26.85;16.40;;;;;;;-1.21;75.46;95301.16;5034215;28;20132;-78
2021/03/09 04:03:52;;;;;;;26.70;15.93;;;;;;;-1.27;75.36;95287.19;5035346;28;20026;-80
2021/03/09 04:06:22;;;;;;;29.55;17.48;;;;;;;-1.31;76.23;95286.84;5034272;28;20034;-80
2021/03/09 04:08:49;;;;;;;26.45;15.98;;;;;;;-1.35;75.58;95274.47;5034096;28;20101;-78
2021/03/09 04:11:15;;;;;;;36.65;18.70;;;;;;;-1.25;75.96;95294.78;5033985;28;20051;-78
2021/03/09 04:13:42;;;;;;;26.63;15.77;;;;;;;-1.28;75.89;95290.81;5033278;28;20076;-77
2021/03/09 04:16:09;;;;;;;30.25;17.13;;;;;;;-1.28;75.46;95290.81;5036246;28;20042;-79
2021/03/09 04:18:36;;;;;;;39.63;18.02;;;;;;;-1.27;75.02;95296.84;5032806;28;20487;-79
2021/03/09 04:21:02;;;;;;;34.55;18.67;;;;;;;-1.33;75.19;95293.31;5033969;28;20033;-79
2021/03/09 04:23:28;;;;;;;31.98;17.02;;;;;;;-1.38;75.34;95285.38;5032427;28;20496;-78
2021/03/09 04:25:54;;;;;;;33.88;17.40;;;;;;;-1.42;75.71;95285.03;5034188;28;20046;-79
2021/03/09 04:28:20;;;;;;;31.83;17.52;;;;;;;-1.43;75.97;95267.78;5032522;28;20506;-78
2021/03/09 04:30:45;;;;;;;36.50;18.35;;;;;;;-1.43;75.85;95270.41;5035797;28;20067;-79
2021/03/09 04:33:11;;;;;;;34.05;18.17;;;;;;;-1.44;75.42;95268.00;5033598;28;20506;-79
2021/03/09 04:35:37;;;;;;;32.63;16.00;;;;;;;-1.39;75.21;95273.34;5033789;28;20038;-79
2021/03/09 04:38:03;;;;;;;30.33;17.38;;;;;;;-1.38;76.07;95275.75;5033501;28;20044;-78
2021/03/09 04:40:30;;;;;;;27.15;16.30;;;;;;;-1.44;75.77;95262.78;5033932;28;20021;-79
2021/03/09 04:42:55;;;;;;;29.75;15.60;;;;;;;-1.45;76.01;95269.03;5035784;28;20013;-78
2021/03/09 04:45:20;;;;;;;39.65;19.52;;;;;;;-1.44;75.54;95275.81;5033148;28;20041;-80
2021/03/09 04:47:47;;;;;;;28.63;17.25;;;;;;;-1.53;75.15;95266.75;5032691;28;20091;-79
2021/03/09 04:50:14;;;;;;;35.00;17.85;;;;;;;-1.48;75.49;95272.88;5031340;28;20058;-79
2021/03/09 04:52:45;;;;;;;25.70;15.55;;;;;;;-1.43;75.66;95288.66;5047947;28;20037;-78
2021/03/09 04:55:13;;;;;;;38.33;17.55;;;;;;;-1.40;75.98;95285.59;5033383;28;20111;-78
2021/03/09 04:57:40;;;;;;;28.08;16.42;;;;;;;-1.41;75.66;95288.44;5032337;28;20038;-79
2021/03/09 05:00:12;;;;;;;30.85;18.33;;;;;;;-1.48;75.80;95285.94;5031356;28;20132;-80
2021/03/09 05:02:37;;;;;;;39.58;18.55;;;;;;;-1.64;76.95;95279.56;5033344;28;20133;-78
2021/03/09 05:05:04;;;;;;;33.67;17.27;;;;;;;-1.57;76.88;95285.44;5032129;28;20566;-79
2021/03/09 05:07:29;;;;;;;28.80;15.50;;;;;;;-1.54;76.93;95278.19;5032719;28;20091;-78
2021/03/09 05:09:54;;;;;;;27.15;15.77;;;;;;;-1.51;76.85;95278.53;5035274;28;20029;-79
2021/03/09 05:12:20;;;;;;;27.30;16.23;;;;;;;-1.47;76.18;95286.72;5032648;28;20129;-79
2021/03/09 05:14:45;;;;;;;27.40;15.45;;;;;;;-1.53;76.68;95277.19;5031760;28;20058;-78
2021/03/09 05:17:10;;;;;;;30.50;16.65;;;;;;;-1.53;76.55;95274.59;5033159;28;20283;-79
2021/03/09 05:19:36;;;;;;;23.38;15.60;;;;;;;-1.44;75.94;95284.44;5033227;28;20079;-79
2021/03/09 05:22:01;;;;;;;28.77;16.15;;;;;;;-1.48;75.72;95275.50;5034859;28;20022;-78
2021/03/09 05:24:26;;;;;;;22.35;14.93;;;;;;;-1.54;75.37;95271.16;5033086;28;20529;-79
2021/03/09 05:26:52;;;;;;;28.92;16.65;;;;;;;-1.47;75.64;95286.72;5032883;28;20030;-78
2021/03/09 05:29:17;;;;;;;28.38;16.13;;;;;;;-1.60;75.28;95272.06;5032984;28;20033;-80
2021/03/09 05:31:42;;;;;;;28.67;16.35;;;;;;;-1.76;75.79;95270.09;5032612;28;20042;-78
2021/03/09 05:34:08;;;;;;;22.63;14.73;;;;;;;-1.82;76.81;95271.78;5034761;28;20026;-79
2021/03/09 05:36:33;;;;;;;23.02;14.70;;;;;;;-1.89;76.87;95276.31;5031547;28;20038;-78
2021/03/09 05:38:58;;;;;;;23.30;15.30;;;;;;;-1.74;77.69;95284.53;5032260;28;20029;-77
2021/03/09 05:41:25;;;;;;;25.00;14.35;;;;;;;-1.76;77.60;95273.50;5031211;28;20030;-78
2021/03/09 05:43:52;;;;;;;25.77;14.75;;;;;;;-1.63;76.79;95283.75;5032307;28;20124;-77
2021/03/09 05:46:17;;;;;;;22.25;14.45;;;;;;;-1.61;76.96;95278.28;5032572;28;20029;-76
2021/03/09 05:48:42;;;;;;;24.08;14.25;;;;;;;-1.58;77.43;95283.88;5034404;28;20036;-79
2021/03/09 05:51:11;;;;;;;24.85;14.45;;;;;;;-1.55;77.65;95279.22;5032369;28;20022;-79
2021/03/09 05:53:36;;;;;;;23.42;14.02;;;;;;;-1.51;76.76;95288.97;5031942;28;20046;-79
2021/03/09 05:56:05;;;;;;;26.45;15.48;;;;;;;-1.37;76.64;95277.31;5031981;28;20044;-79
2021/03/09 05:58:31;;;;;;;24.52;14.48;;;;;;;-1.12;75.85;95291.97;5031771;28;20097;-79
2021/03/09 06:00:56;;;;;;;17.98;13.25;;;;;;;-1.11;75.49;95283.13;5049504;28;20581;-79
2021/03/09 06:03:25;;;;;;;19.77;14.82;;;;;;;-0.93;75.88;95300.47;5031997;28;20124;-79
2021/03/09 06:05:50;;;;;;;19.65;14.43;;;;;;;-1.12;75.75;95279.72;5029303;28;20049;-71
2021/03/09 06:08:16;;;;;;;23.10;14.13;;;;;;;-0.98;75.24;95284.69;5029120;28;20446;-77
2021/03/09 06:10:41;;;;;;;19.98;13.65;;;;;;;-1.38;76.24;95267.91;5030202;28;20037;-77
2021/03/09 06:13:06;;;;;;;19.50;12.57;;;;;;;-1.25;76.22;95305.25;5033548;28;20052;-80
2021/03/09 06:15:32;;;;;;;22.00;14.07;;;;;;;-1.35;76.37;95301.38;5031454;28;20071;-70
2021/03/09 06:17:58;;;;;;;19.50;13.50;;;;;;;-1.46;77.70;95303.97;5029255;28;20049;-77
2021/03/09 06:20:28;;;;;;;21.05;13.52;;;;;;;-1.67;78.16;95285.22;5011958;28;20076;-72
2021/03/09 06:23:04;;;;;;;20.85;14.23;;;;;;;-1.57;78.54;95308.94;5020258;28;20050;-69
2021/03/09 06:25:39;;;;;;;25.80;14.77;;;;;;;-1.51;79.28;95309.06;5012438;28;20472;-74
2021/03/09 06:28:06;;;;;;;30.73;15.20;;;;;;;-1.65;79.72;95316.28;5012550;28;20033;-71
2021/03/09 06:30:33;;;;;;;20.77;14.95;;;;;;;-1.08;78.24;95317.38;5010191;28;20049;-73
2021/03/09 06:33:00;;;;;;;31.17;15.95;;;;;;;-0.83;77.21;95298.09;5010098;28;20160;-72
2021/03/09 06:35:38;;;;;;;33.72;19.23;;;;;;;-0.95;77.29;95268.59;5008889;28;20407;-76
2021/03/09 06:38:24;;;;;;;28.85;17.70;;;;;;;-0.73;77.53;95313.97;5008652;28;20128;-72
2021/03/09 06:41:12;;;;;;;33.35;19.73;;;;;;;-1.13;80.05;95314.66;5008762;28;20034;-83
2021/03/09 06:43:42;;;;;;;36.53;19.95;;;;;;;-1.51;79.19;95223.75;5010429;28;20045;-75
2021/03/09 06:46:21;;;;;;;33.97;20.88;;;;;;;-0.44;77.64;95317.47;5012699;28;20022;-72
2021/03/09 06:48:49;;;;;;;31.17;19.25;;;;;;;-0.48;76.96;95311.09;5011342;28;20069;-83
2021/03/09 06:51:31;;;;;;;26.73;18.63;;;;;;;-0.14;76.92;95316.50;5010019;28;20046;-78
2021/03/09 06:54:08;;;;;;;29.60;18.80;;;;;;;-0.05;76.09;95299.41;5010461;28;20053;-68
2021/03/09 06:56:35;;;;;;;35.25;19.17;;;;;;;0.03;75.62;95300.84;5010548;28;20447;-82
2021/03/09 06:59:21;;;;;;;30.40;19.38;;;;;;;0.08;75.08;95324.50;5009373;28;20149;-81
2021/03/09 07:02:20;;;;;;;33.03;21.33;;;;;;;0.49;74.84;95321.56;5010768;28;20049;-70
2021/03/09 07:04:50;;;;;;;25.73;18.60;;;;;;;0.69;74.72;95308.03;4999508;28;20229;-77
2021/03/09 07:07:40;;;;;;;31.38;19.45;;;;;;;1.01;74.11;95316.09;5031059;28;20112;-79
2021/03/09 07:10:10;;;;;;;40.90;20.08;;;;;;;1.18;73.16;95316.13;5026939;28;20050;-78
2021/03/09 07:12:37;;;;;;;33.60;18.98;;;;;;;1.29;72.92;95323.09;5011217;28;20052;-80
2021/03/09 07:15:05;;;;;;;30.67;20.25;;;;;;;1.45;72.72;95328.53;5010760;28;20037;-77
2021/03/09 07:17:33;;;;;;;27.30;18.85;;;;;;;1.51;72.02;95328.34;5010124;28;20045;-71
2021/03/09 07:20:00;;;;;;;40.38;21.00;;;;;;;1.63;71.96;95327.44;5009882;28;20146;-73
2021/03/09 07:22:26;;;;;;;34.15;21.25;;;;;;;1.63;71.45;95324.81;5008271;28;20498;-72
2021/03/09 07:25:16;;;;;;;38.50;20.48;;;;;;;1.80;71.71;95342.09;5012162;28;20026;-73
2021/03/09 07:28:09;;;;;;;34.78;19.00;;;;;;;1.89;71.38;95329.34;5008704;28;20451;-73
2021/03/09 07:30:39;;;;;;;34.55;21.40;;;;;;;1.86;70.23;95321.19;5007921;28;20092;-74
2021/03/09 07:33:05;;;;;;;31.52;20.75;;;;;;;1.98;70.58;95322.63;5025148;28;20049;-75
2021/03/09 07:35:31;;;;;;;35.10;21.00;;;;;;;2.09;70.31;95323.53;5011081;28;20034;-77
2021/03/09 07:37:57;;;;;;;36.33;20.42;;;;;;;2.08;69.76;95316.72;5010797;28;20607;-77
2021/03/09 07:40:26;;;;;;;30.75;19.70;;;;;;;2.16;69.87;95323.38;5010650;28;20472;-77
2021/03/09 07:42:51;;;;;;;36.22;19.83;;;;;;;2.20;69.34;95317.38;5012346;28;20075;-76
2021/03/09 07:45:19;;;;;;;28.63;19.15;;;;;;;2.40;69.15;95327.28;5010503;28;20132;-75
2021/03/09 07:48:00;;;;;;;34.65;21.30;;;;;;;2.32;68.62;95317.25;5010093;28;20045;-76
2021/03/09 07:50:31;;;;;;;33.95;21.83;;;;;;;2.44;69.35;95306.59;5010198;28;20412;-75
2021/03/09 07:52:59;;;;;;;34.70;20.60;;;;;;;2.59;69.21;95331.16;5010137;28;20045;-75
2021/03/09 07:55:27;;;;;;;36.30;22.20;;;;;;;2.59;68.61;95333.78;5010074;28;20117;-73
2021/03/09 07:58:16;;;;;;;30.02;20.90;;;;;;;2.74;68.85;95332.34;5010724;28;20030;-71
2021/03/09 08:01:04;;;;;;;34.42;21.10;;;;;;;2.64;68.60;95306.78;5001289;28;20057;-76
2021/03/09 08:03:35;;;;;;;35.42;19.25;;;;;;;2.43;68.28;95331.25;5009632;28;20176;-73
2021/03/09 08:06:08;;;;;;;30.17;19.85;;;;;;;2.01;70.33;95314.28;4995676;28;20043;-73
2021/03/09 08:08:53;;;;;;;37.72;20.35;;;;;;;2.07;70.51;95329.03;4988655;28;20089;-73
2021/03/09 08:11:24;;;;;;;38.35;21.17;;;;;;;1.96;70.93;95326.56;4989928;28;20070;-74
2021/03/09 08:14:05;;;;;;;32.85;21.00;;;;;;;2.21;70.12;95326.84;4989973;28;20042;-75
2021/03/09 08:16:42;;;;;;;32.25;21.13;;;;;;;1.83;71.08;95320.63;4990101;28;20072;-74
2021/03/09 08:19:08;;;;;;;34.00;20.77;;;;;;;1.55;73.40;95332.09;4992152;28;20064;-74
2021/03/09 08:21:56;;;;;;;32.63;21.08;;;;;;;2.11;72.06;95331.19;4989553;28;20042;-74
2021/03/09 08:24:45;;;;;;;33.60;20.48;;;;;;;2.18;71.25;95329.16;4990178;28;20126;-74
2021/03/09 08:27:30;;;;;;;39.25;21.55;;;;;;;2.31;71.60;95326.94;4989946;28;20035;-74
2021/03/09 08:30:07;;;;;;;32.40;20.73;;;;;;;2.66;69.90;95323.06;4990146;28;20117;-75
2021/03/09 08:32:38;;;;;;;34.35;20.92;;;;;;;2.52;69.90;95327.16;5000457;28;20038;-75
2021/03/09 08:35:12;;;;;;;31.00;21.83;;;;;;;2.16;70.83;95324.16;5006906;28;20061;-76
2021/03/09 08:37:42;;;;;;;34.05;21.35;;;;;;;2.72;70.26;95314.19;4993548;28;20045;-75
2021/03/09 08:40:11;;;;;;;36.88;21.58;;;;;;;2.06;71.90;95316.19;4995712;28;20484;-75
2021/03/09 08:43:01;;;;;;;31.35;21.67;;;;;;;2.82;69.73;95321.38;5027563;28;20038;-74
2021/03/09 08:45:41;;;;;;;34.40;21.00;;;;;;;3.02;68.84;95320.72;5011573;28;20042;-73
2021/03/09 08:48:09;;;;;;;38.70;22.77;;;;;;;2.61;69.79;95281.03;5012894;28;20068;-73
2021/03/09 08:50:40;;;;;;;35.75;19.85;;;;;;;3.07;69.17;95324.22;5012298;28;20090;-74
2021/03/09 08:53:06;;;;;;;34.95;20.95;;;;;;;3.53;68.17;95316.63;5012573;28;20050;-73
2021/03/09 08:55:32;;;;;;;32.25;20.92;;;;;;;3.88;67.81;95317.81;5012682;28;20033;-73
2021/03/09 08:58:05;;;;;;;33.13;21.13;;;;;;;4.21;66.93;95326.38;5014553;28;20101;-73
2021/03/09 09:00:31;;;;;;;34.65;20.33;;;;;;;4.46;65.78;95328.28;5012789;28;20034;-72
2021/03/09 09:02:56;;;;;;;29.77;19.27;;;;;;;4.61;64.79;95315.94;5011324;28;20095;-74
2021/03/09 09:05:28;;;;;;;29.55;21.42;;;;;;;4.80;64.04;95313.56;5012834;28;20038;-72
2021/03/09 09:07:53;;;;;;;33.60;21.30;;;;;;;4.97;63.30;95313.31;5012034;28;20038;-72
2021/03/09 09:10:25;;;;;;;37.83;21.52;;;;;;;5.19;62.82;95319.09;5012016;28;20029;-72
2021/03/09 09:12:52;;;;;;;39.58;22.17;;;;;;;4.52;63.01;95322.75;5013087;28;20034;-72
2021/03/09 09:15:32;;;;;;;36.17;21.90;;;;;;;4.62;63.11;95322.78;5012472;28;20048;-73
2021/03/09 09:18:01;;;;;;;36.38;21.23;;;;;;;5.00;62.96;95309.34;5012246;28;20037;-73
2021/03/09 09:20:34;;;;;;;30.20;20.40;;;;;;;5.12;61.83;95292.22;5011967;28;20034;-73
2021/03/09 09:23:13;;;;;;;34.83;21.15;;;;;;;5.47;62.05;95312.47;5010951;28;20467;-73
2021/03/09 09:25:44;;;;;;;27.50;20.40;;;;;;;5.23;60.36;95290.38;5012327;28;20044;-73
2021/03/09 09:28:26;;;;;;;29.40;20.25;;;;;;;5.27;60.88;95307.22;5014133;28;20484;-73
2021/03/09 09:31:05;;;;;;;32.10;19.55;;;;;;;5.40;60.00;95292.72;5027829;28;20045;-73
2021/03/09 09:33:30;;;;;;;26.70;18.85;;;;;;;5.20;59.98;95291.69;5012109;28;20030;-73
2021/03/09 09:35:57;;;;;;;32.40;21.75;;;;;;;5.57;59.64;95308.22;5011158;28;20053;-73
2021/03/09 09:38:22;;;;;;;27.63;19.25;;;;;;;5.21;59.00;95309.06;5011897;28;20038;-73
2021/03/09 09:40:49;;;;;;;30.40;20.27;;;;;;;5.59;59.91;95306.91;5010781;28;20450;-77
2021/03/09 09:43:18;;;;;;;31.42;20.05;;;;;;;5.78;58.21;95291.25;5014294;28;20026;-80
2021/03/09 09:45:48;;;;;;;35.50;18.20;;;;;;;5.74;58.25;95306.88;5013534;28;20046;-72
2021/03/09 09:48:15;;;;;;;29.52;17.35;;;;;;;5.89;56.40;95292.06;5010445;28;20038;-74
2021/03/09 09:50:44;;;;;;;25.50;17.60;;;;;;;5.83;55.85;95301.03;5011479;28;20049;-78
2021/03/09 09:53:09;;;;;;;28.65;18.33;;;;;;;5.99;55.24;95278.84;5013558;28;20530;-78
2021/03/09 09:55:34;;;;;;;25.27;17.10;;;;;;;6.31;55.01;95288.19;5011380;28;20026;-72
2021/03/09 09:58:01;;;;;;;25.85;16.70;;;;;;;6.55;53.94;95283.00;5013972;28;20026;-73
2021/03/09 10:00:29;;;;;;;22.73;17.23;;;;;;;6.82;52.85;95290.50;5012106;28;20044;-79
2021/03/09 10:03:15;;;;;;;22.40;15.40;;;;;;;6.99;52.63;95277.66;5012041;28;20088;-73
2021/03/09 10:05:43;;;;;;;20.13;16.85;;;;;;;7.27;51.11;95291.97;5011912;28;20030;-68
2021/03/09 10:08:10;;;;;;;22.65;16.80;;;;;;;7.03;50.81;95278.69;5011233;28;20057;-68
2021/03/09 10:10:37;;;;;;;21.30;17.25;;;;;;;6.87;49.14;95283.31;5011224;28;20033;-71
2021/03/09 10:13:22;;;;;;;23.08;16.40;;;;;;;6.81;50.09;95292.34;5013400;28;20022;-72
2021/03/09 10:15:48;;;;;;;19.88;15.43;;;;;;;7.18;50.05;95285.72;5011697;28;20539;-69
2021/03/09 10:18:25;;;;;;;20.88;14.85;;;;;;;6.81;48.55;95281.78;5009995;28;20120;-69
2021/03/09 10:21:02;;;;;;;28.33;16.40;;;;;;;6.22;50.77;95269.47;5011245;28;20033;-77
2021/03/09 10:23:59;;;;;;;23.98;16.50;;;;;;;7.10;49.77;95288.94;5012218;28;20087;-81
2021/03/09 10:26:41;;;;;;;19.42;15.48;;;;;;;7.39;47.77;95283.66;5011280;28;20042;-80
2021/03/09 10:29:12;;;;;;;18.58;14.45;;;;;;;7.61;47.01;95283.16;5012753;28;20117;-82
2021/03/09 10:31:41;;;;;;;15.48;13.75;;;;;;;8.06;46.82;95265.97;5011119;28;20030;-82
2021/03/09 10:34:06;;;;;;;16.05;12.85;;;;;;;8.43;44.99;95275.81;5014346;28;20029;-82
2021/03/09 10:37:02;;;;;;;14.30;12.85;;;;;;;8.63;43.11;95266.78;5012365;28;20031;-81
2021/03/09 10:39:30;;;;;;;14.82;13.35;;;;;;;9.01;42.75;95256.16;5011852;28;20576;-81
2021/03/09 10:41:57;;;;;;;16.77;13.55;;;;;;;8.21;41.46;95259.69;5011645;28;20032;-80
2021/03/09 10:44:36;;;;;;;16.67;12.70;;;;;;;8.99;41.50;95271.56;5011882;28;20057;-80
2021/03/09 10:47:04;;;;;;;16.92;12.07;;;;;;;9.73;41.37;95242.38;5011746;28;20142;-81
2021/03/09 10:49:31;;;;;;;18.40;12.43;;;;;;;10.32;39.76;95254.72;5027347;28;20059;-82
2021/03/09 10:52:05;;;;;;;16.88;12.90;;;;;;;10.62;38.54;95258.59;5013620;28;20050;-80
2021/03/09 10:54:32;;;;;;;13.93;12.52;;;;;;;10.72;37.88;95238.97;5011777;28;20037;-80
2021/03/09 10:56:57;;;;;;;14.68;12.38;;;;;;;10.93;38.17;95232.06;5010819;28;20042;-80
2021/03/09 10:59:24;;;;;;;15.52;13.00;;;;;;;11.14;37.47;95234.22;5011525;28;20042;-80
2021/03/09 11:01:49;;;;;;;17.25;13.32;;;;;;;11.48;37.81;95243.50;5011398;28;20029;-82
2021/03/09 11:04:15;;;;;;;15.48;12.70;;;;;;;11.70;36.95;95256.75;5012429;28;20349;-82
2021/03/09 11:06:40;;;;;;;13.82;12.25;;;;;;;11.65;36.38;95249.66;5010416;28;20046;-80
2021/03/09 11:09:06;;;;;;;17.10;12.63;;;;;;;11.69;35.87;95249.84;5011643;28;20046;-80
2021/03/09 11:11:32;;;;;;;17.50;12.98;;;;;;;11.66;35.37;95250.44;5011473;28;20034;-80
2021/03/09 11:13:57;;;;;;;16.42;13.52;;;;;;;11.55;35.26;95262.47;5010397;28;20038;-80
2021/03/09 11:16:30;;;;;;;13.93;12.63;;;;;;;11.56;34.96;95264.03;5011496;28;20026;-80
2021/03/09 11:18:59;;;;;;;13.35;12.15;;;;;;;11.36;35.37;95252.84;5013053;28;20526;-84
2021/03/09 11:21:26;;;;;;;17.55;12.43;;;;;;;11.66;34.48;95267.22;5011281;28;20456;-83
2021/03/09 11:23:52;;;;;;;15.93;11.98;;;;;;;11.70;35.24;95248.75;5011636;28;20037;-85
2021/03/09 11:26:20;;;;;;;13.15;11.73;;;;;;;11.78;33.87;95261.31;5009933;28;20469;-77
2021/03/09 11:28:46;;;;;;;13.13;11.75;;;;;;;10.65;36.96;95258.00;5009006;28;20125;-75
2021/03/09 11:31:13;;;;;;;14.40;12.75;;;;;;;10.02;36.83;95253.47;5012187;28;20060;-75
2021/03/09 11:33:38;;;;;;;14.77;11.90;;;;;;;9.68;36.72;95245.91;5009138;28;20408;-78